sensor_id;sensor_type;location;lat;lon;timestamp;temperature;humidity
36244;DHT22;22284;49.956;19.816;2022-12-29T00:01:00;3.37;67.00
36244;DHT22;22284;49.956;19.816;2022-12-29T00:04:03;3.35;67.17
36244;DHT22;22284;49.956;19.816;2022-12-29T00:07:05;3.34;67.39
36244;DHT22;22284;49.956;19.816;2022-12-29T00:10:07;3.31;67.66
36244;DHT22;22284;49.956;19.816;2022-12-29T00:13:08;3.32;67.56
36244;DHT22;22284;49.956;19.816;2022-12-29T00:16:29;3.28;67.51
36244;DHT22;22284;49.956;19.816;2022-12-29T00:19:30;3.24;67.75
36244;DHT22;22284;49.956;19.816;2022-12-29T00:22:50;3.24;67.87
36244;DHT22;22284;49.956;19.816;2022-12-29T00:26:15;3.24;68.00
36244;DHT22;22284;49.956;19.816;2022-12-29T00:29:35;3.23;67.93
36244;DHT22;22284;49.956;19.816;2022-12-29T00:32:55;3.27;67.99
36244;DHT22;22284;49.956;19.816;2022-12-29T00:36:34;3.30;68.02
36244;DHT22;22284;49.956;19.816;2022-12-29T00:39:35;3.34;67.84
36244;DHT22;22284;49.956;19.816;2022-12-29T00:42:55;3.38;67.89
36244;DHT22;22284;49.956;19.816;2022-12-29T00:46:14;3.42;67.85
36244;DHT22;22284;49.956;19.816;2022-12-29T00:49:15;3.38;68.10
36244;DHT22;22284;49.956;19.816;2022-12-29T00:52:32;3.37;68.11
36244;DHT22;22284;49.956;19.816;2022-12-29T00:55:37;3.35;68.02
36244;DHT22;22284;49.956;19.816;2022-12-29T00:58:40;3.37;68.03
36244;DHT22;22284;49.956;19.816;2022-12-29T01:01:42;3.40;68.10
36244;DHT22;22284;49.956;19.816;2022-12-29T01:04:43;3.40;68.18
36244;DHT22;22284;49.956;19.816;2022-12-29T01:07:44;3.38;68.25
36244;DHT22;22284;49.956;19.816;2022-12-29T01:10:45;3.40;68.32
36244;DHT22;22284;49.956;19.816;2022-12-29T01:13:46;3.42;68.25
36244;DHT22;22284;49.956;19.816;2022-12-29T01:16:47;3.47;68.19
36244;DHT22;22284;49.956;19.816;2022-12-29T01:19:48;3.55;68.02
36244;DHT22;22284;49.956;19.816;2022-12-29T01:22:49;3.59;67.95
36244;DHT22;22284;49.956;19.816;2022-12-29T01:25:50;3.61;68.08
36244;DHT22;22284;49.956;19.816;2022-12-29T01:28:51;3.57;68.18
36244;DHT22;22284;49.956;19.816;2022-12-29T01:31:52;3.57;68.22
36244;DHT22;22284;49.956;19.816;2022-12-29T01:34:53;3.54;68.24
36244;DHT22;22284;49.956;19.816;2022-12-29T01:38:00;3.50;68.23
36244;DHT22;22284;49.956;19.816;2022-12-29T01:41:03;3.45;68.48
36244;DHT22;22284;49.956;19.816;2022-12-29T01:48:01;3.38;68.48
36244;DHT22;22284;49.956;19.816;2022-12-29T01:51:03;3.37;68.34
36244;DHT22;22284;49.956;19.816;2022-12-29T01:54:09;3.34;68.40
36244;DHT22;22284;49.956;19.816;2022-12-29T01:57:18;3.34;68.43
36244;DHT22;22284;49.956;19.816;2022-12-29T02:00:20;3.40;68.46
36244;DHT22;22284;49.956;19.816;2022-12-29T02:03:23;3.40;68.47
36244;DHT22;22284;49.956;19.816;2022-12-29T02:06:35;3.42;68.56
36244;DHT22;22284;49.956;19.816;2022-12-29T02:09:36;3.40;68.47
36244;DHT22;22284;49.956;19.816;2022-12-29T02:12:37;3.38;68.77
36244;DHT22;22284;49.956;19.816;2022-12-29T02:15:51;3.38;68.84
36244;DHT22;22284;49.956;19.816;2022-12-29T02:26:44;3.41;69.10
36244;DHT22;22284;49.956;19.816;2022-12-29T02:36:47;3.52;68.96
36244;DHT22;22284;49.956;19.816;2022-12-29T02:40:05;3.57;68.99
36244;DHT22;22284;49.956;19.816;2022-12-29T02:43:27;3.61;69.08
36244;DHT22;22284;49.956;19.816;2022-12-29T02:47:06;3.57;69.13
36244;DHT22;22284;49.956;19.816;2022-12-29T02:53:24;3.54;69.34
36244;DHT22;22284;49.956;19.816;2022-12-29T02:56:44;3.57;69.38
36244;DHT22;22284;49.956;19.816;2022-12-29T02:59:51;3.58;69.33
36244;DHT22;22284;49.956;19.816;2022-12-29T03:06:56;3.61;69.09
36244;DHT22;22284;49.956;19.816;2022-12-29T03:13:28;3.61;69.38
36244;DHT22;22284;49.956;19.816;2022-12-29T03:16:58;3.70;69.39
36244;DHT22;22284;49.956;19.816;2022-12-29T03:20:06;3.76;69.23
36244;DHT22;22284;49.956;19.816;2022-12-29T03:23:08;3.83;69.14
36244;DHT22;22284;49.956;19.816;2022-12-29T03:26:12;3.85;69.10
36244;DHT22;22284;49.956;19.816;2022-12-29T03:29:14;3.87;69.11
36244;DHT22;22284;49.956;19.816;2022-12-29T03:32:17;3.92;69.04
36244;DHT22;22284;49.956;19.816;2022-12-29T03:35:22;3.98;68.86
36244;DHT22;22284;49.956;19.816;2022-12-29T03:38:42;4.01;68.77
36244;DHT22;22284;49.956;19.816;2022-12-29T03:41:44;4.04;68.76
36244;DHT22;22284;49.956;19.816;2022-12-29T03:44:46;4.10;68.71
36244;DHT22;22284;49.956;19.816;2022-12-29T03:47:48;4.08;68.62
36244;DHT22;22284;49.956;19.816;2022-12-29T03:50:49;4.08;68.42
36244;DHT22;22284;49.956;19.816;2022-12-29T03:53:50;4.05;68.43
36244;DHT22;22284;49.956;19.816;2022-12-29T03:56:51;4.05;68.45
36244;DHT22;22284;49.956;19.816;2022-12-29T03:59:52;4.03;68.47
36244;DHT22;22284;49.956;19.816;2022-12-29T04:02:53;4.01;68.49
36244;DHT22;22284;49.956;19.816;2022-12-29T04:05:55;4.00;68.33
36244;DHT22;22284;49.956;19.816;2022-12-29T04:08:56;4.01;68.31
36244;DHT22;22284;49.956;19.816;2022-12-29T04:11:57;4.04;68.33
36244;DHT22;22284;49.956;19.816;2022-12-29T04:14:58;4.10;68.40
36244;DHT22;22284;49.956;19.816;2022-12-29T04:17:59;4.14;68.41
36244;DHT22;22284;49.956;19.816;2022-12-29T04:21:00;4.13;68.40
36244;DHT22;22284;49.956;19.816;2022-12-29T04:24:04;4.14;68.44
36244;DHT22;22284;49.956;19.816;2022-12-29T04:27:07;4.14;68.39
36244;DHT22;22284;49.956;19.816;2022-12-29T04:30:10;4.22;68.39
36244;DHT22;22284;49.956;19.816;2022-12-29T04:33:11;4.25;68.28
36244;DHT22;22284;49.956;19.816;2022-12-29T04:36:12;4.28;68.23
36244;DHT22;22284;49.956;19.816;2022-12-29T04:39:13;4.24;68.32
36244;DHT22;22284;49.956;19.816;2022-12-29T04:42:14;4.22;68.34
36244;DHT22;22284;49.956;19.816;2022-12-29T04:45:16;4.13;68.30
36244;DHT22;22284;49.956;19.816;2022-12-29T04:48:17;4.07;68.33
36244;DHT22;22284;49.956;19.816;2022-12-29T04:51:18;3.96;68.43
36244;DHT22;22284;49.956;19.816;2022-12-29T04:54:19;3.87;68.58
36244;DHT22;22284;49.956;19.816;2022-12-29T04:57:20;3.80;68.65
36244;DHT22;22284;49.956;19.816;2022-12-29T05:00:21;3.75;68.75
36244;DHT22;22284;49.956;19.816;2022-12-29T05:03:23;3.77;68.68
36244;DHT22;22284;49.956;19.816;2022-12-29T05:06:24;3.79;68.58
36244;DHT22;22284;49.956;19.816;2022-12-29T05:09:25;3.83;68.53
36244;DHT22;22284;49.956;19.816;2022-12-29T05:12:31;3.85;68.49
36244;DHT22;22284;49.956;19.816;2022-12-29T05:15:33;3.93;68.41
36244;DHT22;22284;49.956;19.816;2022-12-29T05:18:34;3.97;68.12
36244;DHT22;22284;49.956;19.816;2022-12-29T05:21:35;4.00;68.05
36244;DHT22;22284;49.956;19.816;2022-12-29T05:24:36;4.07;68.01
36244;DHT22;22284;49.956;19.816;2022-12-29T05:27:37;4.13;67.43
36244;DHT22;22284;49.956;19.816;2022-12-29T05:30:39;4.22;67.24
36244;DHT22;22284;49.956;19.816;2022-12-29T05:33:40;4.25;67.22
36244;DHT22;22284;49.956;19.816;2022-12-29T05:36:41;4.28;67.37
36244;DHT22;22284;49.956;19.816;2022-12-29T05:39:42;4.26;67.40
36244;DHT22;22284;49.956;19.816;2022-12-29T05:42:43;4.29;67.34
36244;DHT22;22284;49.956;19.816;2022-12-29T05:45:44;4.33;67.24
36244;DHT22;22284;49.956;19.816;2022-12-29T05:48:45;4.45;66.87
36244;DHT22;22284;49.956;19.816;2022-12-29T05:55:47;4.53;66.49
36244;DHT22;22284;49.956;19.816;2022-12-29T05:58:48;4.38;66.64
36244;DHT22;22284;49.956;19.816;2022-12-29T06:01:49;4.24;66.78
36244;DHT22;22284;49.956;19.816;2022-12-29T06:04:50;4.11;66.95
36244;DHT22;22284;49.956;19.816;2022-12-29T06:07:51;4.01;67.17
36244;DHT22;22284;49.956;19.816;2022-12-29T06:10:53;3.92;67.36
36244;DHT22;22284;49.956;19.816;2022-12-29T06:13:54;3.79;67.50
36244;DHT22;22284;49.956;19.816;2022-12-29T06:16:55;3.75;67.66
36244;DHT22;22284;49.956;19.816;2022-12-29T06:19:56;3.68;67.77
36244;DHT22;22284;49.956;19.816;2022-12-29T06:22:57;3.65;67.93
36244;DHT22;22284;49.956;19.816;2022-12-29T06:25:58;3.59;67.99
36244;DHT22;22284;49.956;19.816;2022-12-29T06:28:59;3.55;68.10
36244;DHT22;22284;49.956;19.816;2022-12-29T06:32:00;3.52;68.24
36244;DHT22;22284;49.956;19.816;2022-12-29T06:35:03;3.51;68.32
36244;DHT22;22284;49.956;19.816;2022-12-29T06:38:05;3.55;68.44
36244;DHT22;22284;49.956;19.816;2022-12-29T06:41:06;3.55;68.47
36244;DHT22;22284;49.956;19.816;2022-12-29T06:44:07;3.59;68.47
36244;DHT22;22284;49.956;19.816;2022-12-29T06:47:09;3.63;68.55
36244;DHT22;22284;49.956;19.816;2022-12-29T06:50:10;3.72;68.55
36244;DHT22;22284;49.956;19.816;2022-12-29T06:53:11;3.79;68.52
36244;DHT22;22284;49.956;19.816;2022-12-29T06:56:13;3.86;68.54
36244;DHT22;22284;49.956;19.816;2022-12-29T06:59:14;3.93;68.52
36244;DHT22;22284;49.956;19.816;2022-12-29T07:02:15;4.01;68.46
36244;DHT22;22284;49.956;19.816;2022-12-29T07:05:18;4.10;68.45
36244;DHT22;22284;49.956;19.816;2022-12-29T07:08:19;4.21;68.34
36244;DHT22;22284;49.956;19.816;2022-12-29T07:11:21;4.28;68.27
36244;DHT22;22284;49.956;19.816;2022-12-29T07:14:22;4.33;68.18
36244;DHT22;22284;49.956;19.816;2022-12-29T07:17:23;4.43;67.99
36244;DHT22;22284;49.956;19.816;2022-12-29T07:20:24;4.51;67.70
36244;DHT22;22284;49.956;19.816;2022-12-29T07:23:25;4.65;67.56
36244;DHT22;22284;49.956;19.816;2022-12-29T07:26:27;4.75;67.37
36244;DHT22;22284;49.956;19.816;2022-12-29T07:29:28;4.84;67.24
36244;DHT22;22284;49.956;19.816;2022-12-29T07:32:34;4.94;67.08
36244;DHT22;22284;49.956;19.816;2022-12-29T07:35:35;4.97;66.95
36244;DHT22;22284;49.956;19.816;2022-12-29T07:38:37;5.01;66.60
36244;DHT22;22284;49.956;19.816;2022-12-29T07:41:38;5.08;66.27
36244;DHT22;22284;49.956;19.816;2022-12-29T07:44:39;5.10;66.41
36244;DHT22;22284;49.956;19.816;2022-12-29T07:47:40;5.16;65.96
36244;DHT22;22284;49.956;19.816;2022-12-29T07:50:41;5.19;66.04
36244;DHT22;22284;49.956;19.816;2022-12-29T07:53:42;5.23;65.82
36244;DHT22;22284;49.956;19.816;2022-12-29T07:56:43;5.26;65.80
36244;DHT22;22284;49.956;19.816;2022-12-29T07:59:44;5.33;65.83
36244;DHT22;22284;49.956;19.816;2022-12-29T08:02:45;5.36;66.08
36244;DHT22;22284;49.956;19.816;2022-12-29T08:05:46;5.36;66.31
36244;DHT22;22284;49.956;19.816;2022-12-29T08:08:47;5.39;66.41
36244;DHT22;22284;49.956;19.816;2022-12-29T08:11:48;5.42;66.53
36244;DHT22;22284;49.956;19.816;2022-12-29T08:14:50;5.40;66.54
36244;DHT22;22284;49.956;19.816;2022-12-29T08:17:51;5.45;66.62
36244;DHT22;22284;49.956;19.816;2022-12-29T08:20:52;5.45;66.57
36244;DHT22;22284;49.956;19.816;2022-12-29T08:23:53;5.51;66.22
36244;DHT22;22284;49.956;19.816;2022-12-29T08:26:55;5.59;65.76
36244;DHT22;22284;49.956;19.816;2022-12-29T08:29:56;5.56;65.39
36244;DHT22;22284;49.956;19.816;2022-12-29T08:32:58;5.57;65.82
36244;DHT22;22284;49.956;19.816;2022-12-29T08:36:07;5.56;66.10
36244;DHT22;22284;49.956;19.816;2022-12-29T08:39:08;5.56;66.29
36244;DHT22;22284;49.956;19.816;2022-12-29T08:42:09;5.60;66.48
36244;DHT22;22284;49.956;19.816;2022-12-29T08:45:11;5.65;66.63
36244;DHT22;22284;49.956;19.816;2022-12-29T08:48:12;5.66;66.76
36244;DHT22;22284;49.956;19.816;2022-12-29T08:51:12;5.65;66.90
36244;DHT22;22284;49.956;19.816;2022-12-29T08:54:14;5.60;66.91
36244;DHT22;22284;49.956;19.816;2022-12-29T08:57:15;5.53;66.73
36244;DHT22;22284;49.956;19.816;2022-12-29T09:00:16;5.47;66.79
36244;DHT22;22284;49.956;19.816;2022-12-29T09:03:17;5.38;66.97
36244;DHT22;22284;49.956;19.816;2022-12-29T09:06:18;5.36;67.06
36244;DHT22;22284;49.956;19.816;2022-12-29T09:09:20;5.32;67.16
36244;DHT22;22284;49.956;19.816;2022-12-29T09:12:21;5.35;67.17
36244;DHT22;22284;49.956;19.816;2022-12-29T09:15:22;5.40;67.19
36244;DHT22;22284;49.956;19.816;2022-12-29T09:18:23;5.45;67.14
36244;DHT22;22284;49.956;19.816;2022-12-29T09:21:24;5.53;67.09
36244;DHT22;22284;49.956;19.816;2022-12-29T09:24:25;5.59;67.14
36244;DHT22;22284;49.956;19.816;2022-12-29T09:27:26;5.67;67.19
36244;DHT22;22284;49.956;19.816;2022-12-29T09:30:27;5.81;67.24
36244;DHT22;22284;49.956;19.816;2022-12-29T09:33:28;5.90;67.27
36244;DHT22;22284;49.956;19.816;2022-12-29T09:36:30;5.95;67.32
36244;DHT22;22284;49.956;19.816;2022-12-29T09:39:31;6.05;67.35
36244;DHT22;22284;49.956;19.816;2022-12-29T09:42:41;6.16;67.46
36244;DHT22;22284;49.956;19.816;2022-12-29T09:52:35;6.57;67.28
36244;DHT22;22284;49.956;19.816;2022-12-29T09:55:52;6.74;66.95
36244;DHT22;22284;49.956;19.816;2022-12-29T09:59:14;6.85;66.58
36244;DHT22;22284;49.956;19.816;2022-12-29T10:02:37;6.88;66.69
36244;DHT22;22284;49.956;19.816;2022-12-29T10:09:16;7.05;66.54
36244;DHT22;22284;49.956;19.816;2022-12-29T10:19:05;7.33;66.01
36244;DHT22;22284;49.956;19.816;2022-12-29T10:25:20;7.51;65.56
36244;DHT22;22284;49.956;19.816;2022-12-29T10:28:40;7.58;65.56
36244;DHT22;22284;49.956;19.816;2022-12-29T10:35:22;7.81;65.47
36244;DHT22;22284;49.956;19.816;2022-12-29T10:38:37;7.91;65.71
36244;DHT22;22284;49.956;19.816;2022-12-29T10:42:00;8.05;65.59
36244;DHT22;22284;49.956;19.816;2022-12-29T10:45:00;8.19;65.13
36244;DHT22;22284;49.956;19.816;2022-12-29T10:51:08;8.59;64.58
36244;DHT22;22284;49.956;19.816;2022-12-29T10:54:18;8.82;64.42
36244;DHT22;22284;49.956;19.816;2022-12-29T10:57:32;9.09;63.66
36244;DHT22;22284;49.956;19.816;2022-12-29T11:00:34;9.30;62.85
36244;DHT22;22284;49.956;19.816;2022-12-29T11:07:01;9.63;61.57
36244;DHT22;22284;49.956;19.816;2022-12-29T11:10:35;9.78;61.58
36244;DHT22;22284;49.956;19.816;2022-12-29T11:13:38;9.96;60.88
36244;DHT22;22284;49.956;19.816;2022-12-29T11:16:37;10.06;60.46
36244;DHT22;22284;49.956;19.816;2022-12-29T11:19:38;10.16;60.54
36244;DHT22;22284;49.956;19.816;2022-12-29T11:22:43;10.25;59.49
36244;DHT22;22284;49.956;19.816;2022-12-29T11:25:45;10.34;59.98
36244;DHT22;22284;49.956;19.816;2022-12-29T11:32:24;10.42;59.31
36244;DHT22;22284;49.956;19.816;2022-12-29T11:35:42;10.45;58.91
36244;DHT22;22284;49.956;19.816;2022-12-29T11:38:49;10.48;58.27
36244;DHT22;22284;49.956;19.816;2022-12-29T11:41:52;10.56;58.03
36244;DHT22;22284;49.956;19.816;2022-12-29T11:44:54;10.65;58.41
36244;DHT22;22284;49.956;19.816;2022-12-29T11:48:18;10.75;58.22
36244;DHT22;22284;49.956;19.816;2022-12-29T11:51:24;10.82;57.76
36244;DHT22;22284;49.956;19.816;2022-12-29T11:54:31;10.93;57.28
36244;DHT22;22284;49.956;19.816;2022-12-29T11:57:33;11.03;57.45
36244;DHT22;22284;49.956;19.816;2022-12-29T12:00:37;11.08;56.84
36244;DHT22;22284;49.956;19.816;2022-12-29T12:03:50;11.14;57.14
36244;DHT22;22284;49.956;19.816;2022-12-29T12:07:14;11.14;57.31
36244;DHT22;22284;49.956;19.816;2022-12-29T12:10:21;11.14;56.77
36244;DHT22;22284;49.956;19.816;2022-12-29T12:17:02;11.14;57.18
36244;DHT22;22284;49.956;19.816;2022-12-29T12:20:20;11.15;57.62
36244;DHT22;22284;49.956;19.816;2022-12-29T12:30:07;11.14;56.40
36244;DHT22;22284;49.956;19.816;2022-12-29T12:36:49;11.12;57.33
36244;DHT22;22284;49.956;19.816;2022-12-29T12:58:04;11.15;57.20
36244;DHT22;22284;49.956;19.816;2022-12-29T13:04:40;11.17;57.41
36244;DHT22;22284;49.956;19.816;2022-12-29T13:11:55;11.21;57.45
36244;DHT22;22284;49.956;19.816;2022-12-29T13:15:29;11.19;57.21
36244;DHT22;22284;49.956;19.816;2022-12-29T13:25:26;11.25;57.15
36244;DHT22;22284;49.956;19.816;2022-12-29T13:32:19;11.24;56.65
36244;DHT22;22284;49.956;19.816;2022-12-29T13:38:43;11.22;57.19
36244;DHT22;22284;49.956;19.816;2022-12-29T13:41:49;11.19;56.70
36244;DHT22;22284;49.956;19.816;2022-12-29T13:45:04;11.15;56.52
36244;DHT22;22284;49.956;19.816;2022-12-29T13:48:22;11.15;56.89
36244;DHT22;22284;49.956;19.816;2022-12-29T13:51:25;11.14;56.71
36244;DHT22;22284;49.956;19.816;2022-12-29T13:58:26;11.08;56.57
36244;DHT22;22284;49.956;19.816;2022-12-29T14:01:47;11.03;56.85
36244;DHT22;22284;49.956;19.816;2022-12-29T14:05:15;10.98;56.96
36244;DHT22;22284;49.956;19.816;2022-12-29T14:08:15;10.93;57.18
36244;DHT22;22284;49.956;19.816;2022-12-29T14:11:20;10.91;57.21
36244;DHT22;22284;49.956;19.816;2022-12-29T14:14:25;10.84;57.28
36244;DHT22;22284;49.956;19.816;2022-12-29T14:17:27;10.84;57.23
36244;DHT22;22284;49.956;19.816;2022-12-29T14:20:28;10.80;57.35
36244;DHT22;22284;49.956;19.816;2022-12-29T14:23:51;10.78;57.38
36244;DHT22;22284;49.956;19.816;2022-12-29T14:26:54;10.73;57.48
36244;DHT22;22284;49.956;19.816;2022-12-29T14:29:55;10.69;57.67
36244;DHT22;22284;49.956;19.816;2022-12-29T14:33:03;10.69;57.64
36244;DHT22;22284;49.956;19.816;2022-12-29T14:36:21;10.66;57.93
36244;DHT22;22284;49.956;19.816;2022-12-29T14:39:44;10.65;57.85
36244;DHT22;22284;49.956;19.816;2022-12-29T14:42:46;10.62;57.85
36244;DHT22;22284;49.956;19.816;2022-12-29T14:46:00;10.58;57.88
36244;DHT22;22284;49.956;19.816;2022-12-29T14:49:02;10.55;57.94
36244;DHT22;22284;49.956;19.816;2022-12-29T14:52:24;10.51;58.08
36244;DHT22;22284;49.956;19.816;2022-12-29T14:55:47;10.46;58.28
36244;DHT22;22284;49.956;19.816;2022-12-29T14:58:57;10.44;58.18
36244;DHT22;22284;49.956;19.816;2022-12-29T15:02:01;10.39;58.37
36244;DHT22;22284;49.956;19.816;2022-12-29T15:05:05;10.37;58.52
36244;DHT22;22284;49.956;19.816;2022-12-29T15:08:09;10.34;58.74
36244;DHT22;22284;49.956;19.816;2022-12-29T15:11:24;10.32;58.92
36244;DHT22;22284;49.956;19.816;2022-12-29T15:14:35;10.29;59.13
36244;DHT22;22284;49.956;19.816;2022-12-29T15:17:37;10.21;59.27
36244;DHT22;22284;49.956;19.816;2022-12-29T15:20:39;10.16;59.55
36244;DHT22;22284;49.956;19.816;2022-12-29T15:23:43;10.09;59.75
36244;DHT22;22284;49.956;19.816;2022-12-29T15:26:49;10.03;59.67
36244;DHT22;22284;49.956;19.816;2022-12-29T15:30:03;9.99;59.74
36244;DHT22;22284;49.956;19.816;2022-12-29T15:33:19;9.92;59.84
36244;DHT22;22284;49.956;19.816;2022-12-29T15:36:26;9.89;59.91
36244;DHT22;22284;49.956;19.816;2022-12-29T15:39:30;9.85;60.02
36244;DHT22;22284;49.956;19.816;2022-12-29T15:45:55;9.73;59.65
36244;DHT22;22284;49.956;19.816;2022-12-29T15:48:57;9.67;59.59
36244;DHT22;22284;49.956;19.816;2022-12-29T15:51:58;9.66;59.68
36244;DHT22;22284;49.956;19.816;2022-12-29T15:55:00;9.61;59.86
36244;DHT22;22284;49.956;19.816;2022-12-29T15:58:06;9.54;59.83
36244;DHT22;22284;49.956;19.816;2022-12-29T16:04:30;9.38;60.11
36244;DHT22;22284;49.956;19.816;2022-12-29T16:07:32;9.34;60.21
36244;DHT22;22284;49.956;19.816;2022-12-29T16:10:40;9.30;60.29
36244;DHT22;22284;49.956;19.816;2022-12-29T16:13:43;9.27;60.40
36244;DHT22;22284;49.956;19.816;2022-12-29T16:16:46;9.26;60.44
36244;DHT22;22284;49.956;19.816;2022-12-29T16:19:52;9.20;60.54
36244;DHT22;22284;49.956;19.816;2022-12-29T16:22:56;9.14;60.69
36244;DHT22;22284;49.956;19.816;2022-12-29T16:25:58;9.13;60.69
36244;DHT22;22284;49.956;19.816;2022-12-29T16:29:01;9.13;60.79
36244;DHT22;22284;49.956;19.816;2022-12-29T16:32:26;9.11;60.99
36244;DHT22;22284;49.956;19.816;2022-12-29T16:35:44;9.10;60.79
36244;DHT22;22284;49.956;19.816;2022-12-29T16:38:41;9.09;60.87
36244;DHT22;22284;49.956;19.816;2022-12-29T16:41:42;9.09;60.99
36244;DHT22;22284;49.956;19.816;2022-12-29T16:44:44;9.10;61.01
36244;DHT22;22284;49.956;19.816;2022-12-29T16:51:24;9.09;61.17
36244;DHT22;22284;49.956;19.816;2022-12-29T16:54:33;9.04;61.21
36244;DHT22;22284;49.956;19.816;2022-12-29T16:57:36;9.04;61.23
36244;DHT22;22284;49.956;19.816;2022-12-29T17:00:37;8.99;61.35
36244;DHT22;22284;49.956;19.816;2022-12-29T17:03:42;9.03;61.40
36244;DHT22;22284;49.956;19.816;2022-12-29T17:06:44;9.00;61.53
36244;DHT22;22284;49.956;19.816;2022-12-29T17:09:46;8.96;61.57
36244;DHT22;22284;49.956;19.816;2022-12-29T17:12:48;8.98;61.63
36244;DHT22;22284;49.956;19.816;2022-12-29T17:15:49;8.95;61.73
36244;DHT22;22284;49.956;19.816;2022-12-29T17:18:50;8.95;61.76
36244;DHT22;22284;49.956;19.816;2022-12-29T17:21:51;8.92;61.88
36244;DHT22;22284;49.956;19.816;2022-12-29T17:24:56;8.91;61.98
36244;DHT22;22284;49.956;19.816;2022-12-29T17:28:25;8.86;62.01
36244;DHT22;22284;49.956;19.816;2022-12-29T17:31:27;8.82;62.13
36244;DHT22;22284;49.956;19.816;2022-12-29T17:34:28;8.79;62.27
36244;DHT22;22284;49.956;19.816;2022-12-29T17:37:34;8.75;62.31
36244;DHT22;22284;49.956;19.816;2022-12-29T17:40:35;8.72;62.44
36244;DHT22;22284;49.956;19.816;2022-12-29T17:43:37;8.71;62.60
36244;DHT22;22284;49.956;19.816;2022-12-29T17:46:38;8.68;62.64
36244;DHT22;22284;49.956;19.816;2022-12-29T17:49:39;8.65;62.74
36244;DHT22;22284;49.956;19.816;2022-12-29T17:52:41;8.62;62.85
36244;DHT22;22284;49.956;19.816;2022-12-29T17:55:42;8.61;62.91
36244;DHT22;22284;49.956;19.816;2022-12-29T17:58:45;8.61;62.97
36244;DHT22;22284;49.956;19.816;2022-12-29T18:01:48;8.54;63.05
36244;DHT22;22284;49.956;19.816;2022-12-29T18:04:49;8.45;63.04
36244;DHT22;22284;49.956;19.816;2022-12-29T18:07:53;8.37;63.15
36244;DHT22;22284;49.956;19.816;2022-12-29T18:10:55;8.24;63.26
36244;DHT22;22284;49.956;19.816;2022-12-29T18:13:56;8.06;63.36
36244;DHT22;22284;49.956;19.816;2022-12-29T18:16:57;7.91;63.57
36244;DHT22;22284;49.956;19.816;2022-12-29T18:19:58;7.77;63.74
36244;DHT22;22284;49.956;19.816;2022-12-29T18:22:59;7.68;63.95
36244;DHT22;22284;49.956;19.816;2022-12-29T18:26:27;7.64;64.08
36244;DHT22;22284;49.956;19.816;2022-12-29T18:29:31;7.57;64.16
36244;DHT22;22284;49.956;19.816;2022-12-29T18:32:32;7.50;64.33
36244;DHT22;22284;49.956;19.816;2022-12-29T18:35:39;7.46;64.48
36244;DHT22;22284;49.956;19.816;2022-12-29T18:38:42;7.40;64.67
36244;DHT22;22284;49.956;19.816;2022-12-29T18:41:43;7.37;65.12
36244;DHT22;22284;49.956;19.816;2022-12-29T18:44:44;7.40;65.13
36244;DHT22;22284;49.956;19.816;2022-12-29T18:47:45;7.54;65.17
36244;DHT22;22284;49.956;19.816;2022-12-29T18:50:48;7.62;65.17
36244;DHT22;22284;49.956;19.816;2022-12-29T18:53:53;7.68;64.94
36244;DHT22;22284;49.956;19.816;2022-12-29T18:56:54;7.71;64.76
36244;DHT22;22284;49.956;19.816;2022-12-29T18:59:55;7.68;64.62
36244;DHT22;22284;49.956;19.816;2022-12-29T19:02:57;7.68;64.55
36244;DHT22;22284;49.956;19.816;2022-12-29T19:05:58;7.71;64.47
36244;DHT22;22284;49.956;19.816;2022-12-29T19:09:00;7.72;64.53
36244;DHT22;22284;49.956;19.816;2022-12-29T19:12:01;7.69;64.50
36244;DHT22;22284;49.956;19.816;2022-12-29T19:15:02;7.68;64.49
36244;DHT22;22284;49.956;19.816;2022-12-29T19:18:06;7.68;64.58
36244;DHT22;22284;49.956;19.816;2022-12-29T19:21:10;7.69;64.72
36244;DHT22;22284;49.956;19.816;2022-12-29T19:24:11;7.72;64.81
36244;DHT22;22284;49.956;19.816;2022-12-29T19:27:12;7.77;64.79
36244;DHT22;22284;49.956;19.816;2022-12-29T19:30:14;7.84;64.69
36244;DHT22;22284;49.956;19.816;2022-12-29T19:33:15;7.89;64.65
36244;DHT22;22284;49.956;19.816;2022-12-29T19:36:16;7.95;64.68
36244;DHT22;22284;49.956;19.816;2022-12-29T19:39:18;8.02;64.69
36244;DHT22;22284;49.956;19.816;2022-12-29T19:42:20;8.05;64.68
36244;DHT22;22284;49.956;19.816;2022-12-29T19:45:22;8.12;64.66
36244;DHT22;22284;49.956;19.816;2022-12-29T19:48:23;8.16;64.57
36244;DHT22;22284;49.956;19.816;2022-12-29T19:51:25;8.17;64.53
36244;DHT22;22284;49.956;19.816;2022-12-29T19:54:26;8.23;64.49
36244;DHT22;22284;49.956;19.816;2022-12-29T19:57:28;8.33;64.32
36244;DHT22;22284;49.956;19.816;2022-12-29T20:00:29;8.36;64.21
36244;DHT22;22284;49.956;19.816;2022-12-29T20:03:32;8.40;64.05
36244;DHT22;22284;49.956;19.816;2022-12-29T20:06:33;8.44;63.97
36244;DHT22;22284;49.956;19.816;2022-12-29T20:09:34;8.49;63.90
36244;DHT22;22284;49.956;19.816;2022-12-29T20:12:35;8.54;63.93
36244;DHT22;22284;49.956;19.816;2022-12-29T20:15:42;8.58;64.09
36244;DHT22;22284;49.956;19.816;2022-12-29T20:18:43;8.59;64.07
36244;DHT22;22284;49.956;19.816;2022-12-29T20:21:44;8.61;64.19
36244;DHT22;22284;49.956;19.816;2022-12-29T20:24:47;8.62;64.20
36244;DHT22;22284;49.956;19.816;2022-12-29T20:27:48;8.64;64.18
36244;DHT22;22284;49.956;19.816;2022-12-29T20:31:03;8.68;64.07
36244;DHT22;22284;49.956;19.816;2022-12-29T20:34:06;8.68;63.88
36244;DHT22;22284;49.956;19.816;2022-12-29T20:37:09;8.71;63.72
36244;DHT22;22284;49.956;19.816;2022-12-29T20:40:11;8.74;63.76
36244;DHT22;22284;49.956;19.816;2022-12-29T20:43:14;8.78;63.56
36244;DHT22;22284;49.956;19.816;2022-12-29T20:46:15;8.82;63.11
36244;DHT22;22284;49.956;19.816;2022-12-29T20:49:17;8.89;63.05
36244;DHT22;22284;49.956;19.816;2022-12-29T20:52:17;8.88;62.77
36244;DHT22;22284;49.956;19.816;2022-12-29T20:55:19;8.91;62.63
36244;DHT22;22284;49.956;19.816;2022-12-29T20:58:20;8.92;62.37
36244;DHT22;22284;49.956;19.816;2022-12-29T21:01:23;8.95;62.48
36244;DHT22;22284;49.956;19.816;2022-12-29T21:04:25;8.99;62.27
36244;DHT22;22284;49.956;19.816;2022-12-29T21:07:26;8.98;62.38
36244;DHT22;22284;49.956;19.816;2022-12-29T21:10:27;8.96;62.41
36244;DHT22;22284;49.956;19.816;2022-12-29T21:13:28;8.98;62.05
36244;DHT22;22284;49.956;19.816;2022-12-29T21:16:29;8.99;62.15
36244;DHT22;22284;49.956;19.816;2022-12-29T21:19:31;8.99;62.01
36244;DHT22;22284;49.956;19.816;2022-12-29T21:22:32;8.99;62.24
36244;DHT22;22284;49.956;19.816;2022-12-29T21:25:33;9.02;62.18
36244;DHT22;22284;49.956;19.816;2022-12-29T21:28:37;9.00;62.21
36244;DHT22;22284;49.956;19.816;2022-12-29T21:31:39;8.99;62.16
36244;DHT22;22284;49.956;19.816;2022-12-29T21:34:40;8.99;62.17
36244;DHT22;22284;49.956;19.816;2022-12-29T21:37:41;8.99;62.43